sensor_id;sensor_type;location;lat;lon;timestamp;temperature;humidity
63537;DHT22;49686;51.880;5.632;2023-01-24T00:01:26;0.90;99.90
63537;DHT22;49686;51.880;5.632;2023-01-24T00:03:54;0.90;99.90
63537;DHT22;49686;51.880;5.632;2023-01-24T00:06:21;1.00;99.90
63537;DHT22;49686;51.880;5.632;2023-01-24T00:08:48;0.90;99.90
63537;DHT22;49686;51.880;5.632;2023-01-24T00:11:15;0.90;99.90
63537;DHT22;49686;51.880;5.632;2023-01-24T00:13:42;0.90;99.90
63537;DHT22;49686;51.880;5.632;2023-01-24T00:16:11;0.90;99.90
63537;DHT22;49686;51.880;5.632;2023-01-24T00:18:38;0.90;99.90
63537;DHT22;49686;51.880;5.632;2023-01-24T00:21:09;0.90;99.90
63537;DHT22;49686;51.880;5.632;2023-01-24T00:23:36;0.90;99.90
63537;DHT22;49686;51.880;5.632;2023-01-24T00:26:03;0.90;99.90
63537;DHT22;49686;51.880;5.632;2023-01-24T00:28:30;0.90;99.90
63537;DHT22;49686;51.880;5.632;2023-01-24T00:30:57;0.90;99.90
63537;DHT22;49686;51.880;5.632;2023-01-24T00:33:24;0.90;99.90
63537;DHT22;49686;51.880;5.632;2023-01-24T00:35:51;0.90;99.90
63537;DHT22;49686;51.880;5.632;2023-01-24T00:38:20;0.90;99.90
63537;DHT22;49686;51.880;5.632;2023-01-24T00:40:48;0.90;99.90
63537;DHT22;49686;51.880;5.632;2023-01-24T00:43:15;0.80;99.90
63537;DHT22;49686;51.880;5.632;2023-01-24T00:45:43;0.90;99.90
63537;DHT22;49686;51.880;5.632;2023-01-24T00:48:10;0.90;99.90
63537;DHT22;49686;51.880;5.632;2023-01-24T00:50:37;0.90;99.90
63537;DHT22;49686;51.880;5.632;2023-01-24T00:53:04;0.80;99.90
63537;DHT22;49686;51.880;5.632;2023-01-24T00:55:32;0.80;99.90
63537;DHT22;49686;51.880;5.632;2023-01-24T00:57:59;0.70;99.90
63537;DHT22;49686;51.880;5.632;2023-01-24T01:00:26;0.70;99.90
63537;DHT22;49686;51.880;5.632;2023-01-24T01:02:53;0.70;99.90
63537;DHT22;49686;51.880;5.632;2023-01-24T01:05:20;0.70;99.90
63537;DHT22;49686;51.880;5.632;2023-01-24T01:07:47;0.60;99.90
63537;DHT22;49686;51.880;5.632;2023-01-24T01:10:14;0.60;99.90
63537;DHT22;49686;51.880;5.632;2023-01-24T01:12:42;0.60;99.90
63537;DHT22;49686;51.880;5.632;2023-01-24T01:15:10;0.60;99.90
63537;DHT22;49686;51.880;5.632;2023-01-24T01:17:37;0.70;99.90
63537;DHT22;49686;51.880;5.632;2023-01-24T01:20:04;0.70;99.90
63537;DHT22;49686;51.880;5.632;2023-01-24T01:22:31;0.70;99.90
63537;DHT22;49686;51.880;5.632;2023-01-24T01:24:58;0.70;99.90
63537;DHT22;49686;51.880;5.632;2023-01-24T01:27:25;0.80;99.90
63537;DHT22;49686;51.880;5.632;2023-01-24T01:29:53;0.80;99.90
63537;DHT22;49686;51.880;5.632;2023-01-24T01:32:20;0.80;99.90
63537;DHT22;49686;51.880;5.632;2023-01-24T01:34:46;0.80;99.90
63537;DHT22;49686;51.880;5.632;2023-01-24T01:37:13;0.80;99.90
63537;DHT22;49686;51.880;5.632;2023-01-24T01:39:40;0.80;99.90
63537;DHT22;49686;51.880;5.632;2023-01-24T01:42:07;0.80;99.90
63537;DHT22;49686;51.880;5.632;2023-01-24T01:44:34;0.80;99.90
63537;DHT22;49686;51.880;5.632;2023-01-24T01:47:02;0.80;99.90
63537;DHT22;49686;51.880;5.632;2023-01-24T01:49:29;0.80;99.90
63537;DHT22;49686;51.880;5.632;2023-01-24T01:51:59;0.80;99.90
63537;DHT22;49686;51.880;5.632;2023-01-24T01:54:29;0.80;99.90
63537;DHT22;49686;51.880;5.632;2023-01-24T01:56:59;0.80;99.90
63537;DHT22;49686;51.880;5.632;2023-01-24T01:59:29;0.80;99.90
63537;DHT22;49686;51.880;5.632;2023-01-24T02:01:59;0.80;99.90
63537;DHT22;49686;51.880;5.632;2023-01-24T02:04:31;0.80;99.90
63537;DHT22;49686;51.880;5.632;2023-01-24T02:07:02;0.80;99.90
63537;DHT22;49686;51.880;5.632;2023-01-24T02:09:33;0.80;99.90
63537;DHT22;49686;51.880;5.632;2023-01-24T02:12:03;0.80;99.90
63537;DHT22;49686;51.880;5.632;2023-01-24T02:14:31;0.80;99.90
63537;DHT22;49686;51.880;5.632;2023-01-24T02:16:58;0.70;99.90
63537;DHT22;49686;51.880;5.632;2023-01-24T02:19:50;0.70;99.90
63537;DHT22;49686;51.880;5.632;2023-01-24T02:22:24;0.70;99.90
63537;DHT22;49686;51.880;5.632;2023-01-24T02:25:00;0.70;99.90
63537;DHT22;49686;51.880;5.632;2023-01-24T02:27:29;0.70;99.90
63537;DHT22;49686;51.880;5.632;2023-01-24T02:29:56;0.70;99.90
63537;DHT22;49686;51.880;5.632;2023-01-24T02:32:24;0.70;99.90
63537;DHT22;49686;51.880;5.632;2023-01-24T02:34:51;0.70;99.90
63537;DHT22;49686;51.880;5.632;2023-01-24T02:37:18;0.60;99.90
63537;DHT22;49686;51.880;5.632;2023-01-24T02:39:49;0.60;99.90
63537;DHT22;49686;51.880;5.632;2023-01-24T02:42:19;0.60;99.90
63537;DHT22;49686;51.880;5.632;2023-01-24T02:44:51;0.60;99.90
63537;DHT22;49686;51.880;5.632;2023-01-24T02:47:19;0.60;99.90
63537;DHT22;49686;51.880;5.632;2023-01-24T02:49:46;0.60;99.90
63537;DHT22;49686;51.880;5.632;2023-01-24T02:52:12;0.60;99.90
63537;DHT22;49686;51.880;5.632;2023-01-24T02:54:39;0.60;99.90
63537;DHT22;49686;51.880;5.632;2023-01-24T02:57:06;0.60;99.90
63537;DHT22;49686;51.880;5.632;2023-01-24T02:59:33;0.60;99.90
63537;DHT22;49686;51.880;5.632;2023-01-24T03:02:01;0.50;99.90
63537;DHT22;49686;51.880;5.632;2023-01-24T03:04:28;0.50;99.90
63537;DHT22;49686;51.880;5.632;2023-01-24T03:06:55;0.50;99.90
63537;DHT22;49686;51.880;5.632;2023-01-24T03:09:21;0.50;99.90
63537;DHT22;49686;51.880;5.632;2023-01-24T03:11:49;0.50;99.90
63537;DHT22;49686;51.880;5.632;2023-01-24T03:14:16;0.50;99.90
63537;DHT22;49686;51.880;5.632;2023-01-24T03:16:43;0.50;99.90
63537;DHT22;49686;51.880;5.632;2023-01-24T03:19:11;0.50;99.90
63537;DHT22;49686;51.880;5.632;2023-01-24T03:21:38;0.50;99.90
63537;DHT22;49686;51.880;5.632;2023-01-24T03:24:07;0.40;99.90
63537;DHT22;49686;51.880;5.632;2023-01-24T03:26:34;0.40;99.90
63537;DHT22;49686;51.880;5.632;2023-01-24T03:29:01;0.40;99.90
63537;DHT22;49686;51.880;5.632;2023-01-24T03:31:28;0.40;99.90
63537;DHT22;49686;51.880;5.632;2023-01-24T03:33:55;0.40;99.90
63537;DHT22;49686;51.880;5.632;2023-01-24T03:36:23;0.40;99.90
63537;DHT22;49686;51.880;5.632;2023-01-24T03:38:50;0.40;99.90
63537;DHT22;49686;51.880;5.632;2023-01-24T03:41:17;0.40;99.90
63537;DHT22;49686;51.880;5.632;2023-01-24T03:43:44;0.40;99.90
63537;DHT22;49686;51.880;5.632;2023-01-24T03:46:12;0.30;99.90
63537;DHT22;49686;51.880;5.632;2023-01-24T03:48:39;0.30;99.90
63537;DHT22;49686;51.880;5.632;2023-01-24T03:51:05;0.30;99.90
63537;DHT22;49686;51.880;5.632;2023-01-24T03:53:37;0.40;99.90
63537;DHT22;49686;51.880;5.632;2023-01-24T03:56:04;0.30;99.90
63537;DHT22;49686;51.880;5.632;2023-01-24T03:58:32;0.30;99.90
63537;DHT22;49686;51.880;5.632;2023-01-24T04:00:59;0.30;99.90
63537;DHT22;49686;51.880;5.632;2023-01-24T04:03:25;0.30;99.90
63537;DHT22;49686;51.880;5.632;2023-01-24T04:05:52;0.30;99.90
63537;DHT22;49686;51.880;5.632;2023-01-24T04:08:19;0.30;99.90
63537;DHT22;49686;51.880;5.632;2023-01-24T04:10:47;0.30;99.90
63537;DHT22;49686;51.880;5.632;2023-01-24T04:13:14;0.20;99.90
63537;DHT22;49686;51.880;5.632;2023-01-24T04:15:41;0.20;99.90
63537;DHT22;49686;51.880;5.632;2023-01-24T04:18:08;0.20;99.90
63537;DHT22;49686;51.880;5.632;2023-01-24T04:20:36;0.20;99.90
63537;DHT22;49686;51.880;5.632;2023-01-24T04:23:04;0.20;99.90
63537;DHT22;49686;51.880;5.632;2023-01-24T04:25:31;0.20;99.90
63537;DHT22;49686;51.880;5.632;2023-01-24T04:28:00;0.20;99.90
63537;DHT22;49686;51.880;5.632;2023-01-24T04:30:27;0.20;99.90
63537;DHT22;49686;51.880;5.632;2023-01-24T04:32:54;0.20;99.90
63537;DHT22;49686;51.880;5.632;2023-01-24T04:35:23;0.20;99.90
63537;DHT22;49686;51.880;5.632;2023-01-24T04:37:51;0.20;99.90
63537;DHT22;49686;51.880;5.632;2023-01-24T04:40:18;0.20;99.90
63537;DHT22;49686;51.880;5.632;2023-01-24T04:42:44;0.20;99.90
63537;DHT22;49686;51.880;5.632;2023-01-24T04:45:12;0.10;99.90
63537;DHT22;49686;51.880;5.632;2023-01-24T04:47:39;0.10;99.90
63537;DHT22;49686;51.880;5.632;2023-01-24T04:50:07;0.10;99.90
63537;DHT22;49686;51.880;5.632;2023-01-24T04:52:34;0.10;99.90
63537;DHT22;49686;51.880;5.632;2023-01-24T04:55:01;0.10;99.90
63537;DHT22;49686;51.880;5.632;2023-01-24T04:57:28;0.10;99.90
63537;DHT22;49686;51.880;5.632;2023-01-24T04:59:54;0.10;99.90
63537;DHT22;49686;51.880;5.632;2023-01-24T05:02:23;0.10;99.90
63537;DHT22;49686;51.880;5.632;2023-01-24T05:04:49;0.10;99.90
63537;DHT22;49686;51.880;5.632;2023-01-24T05:07:16;0.10;99.90
63537;DHT22;49686;51.880;5.632;2023-01-24T05:09:43;0.10;99.90
63537;DHT22;49686;51.880;5.632;2023-01-24T05:12:10;0.10;99.90
63537;DHT22;49686;51.880;5.632;2023-01-24T05:14:37;0.00;99.90
63537;DHT22;49686;51.880;5.632;2023-01-24T05:17:03;0.00;99.90
63537;DHT22;49686;51.880;5.632;2023-01-24T05:19:33;0.00;99.90
63537;DHT22;49686;51.880;5.632;2023-01-24T05:21:59;0.00;99.90
63537;DHT22;49686;51.880;5.632;2023-01-24T05:24:26;0.00;99.90
63537;DHT22;49686;51.880;5.632;2023-01-24T05:26:53;0.00;99.90
63537;DHT22;49686;51.880;5.632;2023-01-24T05:29:19;0.00;99.90
63537;DHT22;49686;51.880;5.632;2023-01-24T05:31:46;0.00;99.90
63537;DHT22;49686;51.880;5.632;2023-01-24T05:34:13;0.00;99.90
63537;DHT22;49686;51.880;5.632;2023-01-24T05:36:41;0.00;99.90
63537;DHT22;49686;51.880;5.632;2023-01-24T05:39:08;0.00;99.90
63537;DHT22;49686;51.880;5.632;2023-01-24T05:41:35;0.00;99.90
63537;DHT22;49686;51.880;5.632;2023-01-24T05:44:01;0.00;99.90
63537;DHT22;49686;51.880;5.632;2023-01-24T05:46:28;0.00;99.90
63537;DHT22;49686;51.880;5.632;2023-01-24T05:48:55;0.00;99.90
63537;DHT22;49686;51.880;5.632;2023-01-24T05:51:22;0.00;99.90
63537;DHT22;49686;51.880;5.632;2023-01-24T05:53:50;0.00;99.90
63537;DHT22;49686;51.880;5.632;2023-01-24T05:56:19;0.00;99.90
63537;DHT22;49686;51.880;5.632;2023-01-24T05:58:47;0.00;99.90
63537;DHT22;49686;51.880;5.632;2023-01-24T06:01:18;-0.10;99.90
63537;DHT22;49686;51.880;5.632;2023-01-24T06:03:47;-0.10;99.90
63537;DHT22;49686;51.880;5.632;2023-01-24T06:06:16;-0.10;99.90
63537;DHT22;49686;51.880;5.632;2023-01-24T06:08:43;-0.10;99.90
63537;DHT22;49686;51.880;5.632;2023-01-24T06:11:14;-0.10;99.90
63537;DHT22;49686;51.880;5.632;2023-01-24T06:13:41;-0.10;99.90
63537;DHT22;49686;51.880;5.632;2023-01-24T06:16:11;-0.10;99.90
63537;DHT22;49686;51.880;5.632;2023-01-24T06:18:38;-0.10;99.90
63537;DHT22;49686;51.880;5.632;2023-01-24T06:21:07;-0.10;99.90
63537;DHT22;49686;51.880;5.632;2023-01-24T06:23:35;-0.10;99.90
63537;DHT22;49686;51.880;5.632;2023-01-24T06:26:03;-0.10;99.90
63537;DHT22;49686;51.880;5.632;2023-01-24T06:28:31;-0.10;99.90
63537;DHT22;49686;51.880;5.632;2023-01-24T06:31:03;-0.10;99.90
63537;DHT22;49686;51.880;5.632;2023-01-24T06:33:42;-0.10;99.90
63537;DHT22;49686;51.880;5.632;2023-01-24T06:36:20;-0.10;99.90
63537;DHT22;49686;51.880;5.632;2023-01-24T06:38:51;-0.10;99.90
63537;DHT22;49686;51.880;5.632;2023-01-24T06:41:18;-0.10;99.90
63537;DHT22;49686;51.880;5.632;2023-01-24T06:43:48;-0.10;99.90
63537;DHT22;49686;51.880;5.632;2023-01-24T06:46:14;-0.10;99.90
63537;DHT22;49686;51.880;5.632;2023-01-24T06:48:43;-0.10;99.90
63537;DHT22;49686;51.880;5.632;2023-01-24T06:51:11;-0.10;99.90
63537;DHT22;49686;51.880;5.632;2023-01-24T06:53:38;-0.10;99.90
63537;DHT22;49686;51.880;5.632;2023-01-24T06:56:06;-0.10;99.90
63537;DHT22;49686;51.880;5.632;2023-01-24T06:58:33;-0.10;99.90
63537;DHT22;49686;51.880;5.632;2023-01-24T07:01:02;-0.10;99.90
63537;DHT22;49686;51.880;5.632;2023-01-24T07:03:29;-0.10;99.90
63537;DHT22;49686;51.880;5.632;2023-01-24T07:05:56;-0.10;99.90
63537;DHT22;49686;51.880;5.632;2023-01-24T07:08:22;-0.10;99.90
63537;DHT22;49686;51.880;5.632;2023-01-24T07:10:49;-0.10;99.90
63537;DHT22;49686;51.880;5.632;2023-01-24T07:13:16;-0.10;99.90
63537;DHT22;49686;51.880;5.632;2023-01-24T07:15:43;-0.10;99.90
63537;DHT22;49686;51.880;5.632;2023-01-24T07:18:13;-0.10;99.90
63537;DHT22;49686;51.880;5.632;2023-01-24T07:20:42;-0.10;99.90
63537;DHT22;49686;51.880;5.632;2023-01-24T07:23:20;-0.10;99.90
63537;DHT22;49686;51.880;5.632;2023-01-24T07:25:48;-0.20;99.90
63537;DHT22;49686;51.880;5.632;2023-01-24T07:28:16;-0.10;99.90
63537;DHT22;49686;51.880;5.632;2023-01-24T07:30:43;-0.10;99.90
63537;DHT22;49686;51.880;5.632;2023-01-24T07:33:11;-0.10;99.90
63537;DHT22;49686;51.880;5.632;2023-01-24T07:35:38;-0.10;99.90
63537;DHT22;49686;51.880;5.632;2023-01-24T07:38:05;-0.10;99.90
63537;DHT22;49686;51.880;5.632;2023-01-24T07:40:32;-0.10;99.90
63537;DHT22;49686;51.880;5.632;2023-01-24T07:42:59;-0.20;99.90
63537;DHT22;49686;51.880;5.632;2023-01-24T07:45:25;-0.20;99.90
63537;DHT22;49686;51.880;5.632;2023-01-24T07:47:54;-0.20;99.90
63537;DHT22;49686;51.880;5.632;2023-01-24T07:50:22;-0.20;99.90
63537;DHT22;49686;51.880;5.632;2023-01-24T07:52:50;-0.10;99.90
63537;DHT22;49686;51.880;5.632;2023-01-24T07:55:17;-0.20;99.90
63537;DHT22;49686;51.880;5.632;2023-01-24T07:57:44;-0.20;99.90
63537;DHT22;49686;51.880;5.632;2023-01-24T08:00:12;-0.20;99.90
63537;DHT22;49686;51.880;5.632;2023-01-24T08:02:39;-0.20;99.90
63537;DHT22;49686;51.880;5.632;2023-01-24T08:05:06;-0.20;99.90
63537;DHT22;49686;51.880;5.632;2023-01-24T08:07:34;-0.20;99.90
63537;DHT22;49686;51.880;5.632;2023-01-24T08:10:02;-0.20;99.90
63537;DHT22;49686;51.880;5.632;2023-01-24T08:12:29;-0.30;99.90
63537;DHT22;49686;51.880;5.632;2023-01-24T08:14:55;-0.20;99.90
63537;DHT22;49686;51.880;5.632;2023-01-24T08:17:22;-0.20;99.90
63537;DHT22;49686;51.880;5.632;2023-01-24T08:19:49;-0.20;99.90
63537;DHT22;49686;51.880;5.632;2023-01-24T08:22:24;-0.20;99.90
63537;DHT22;49686;51.880;5.632;2023-01-24T08:24:52;-0.20;99.90
63537;DHT22;49686;51.880;5.632;2023-01-24T08:27:19;-0.20;99.90
63537;DHT22;49686;51.880;5.632;2023-01-24T08:29:46;-0.20;99.90
63537;DHT22;49686;51.880;5.632;2023-01-24T08:32:13;-0.20;99.90
63537;DHT22;49686;51.880;5.632;2023-01-24T08:34:39;-0.20;99.90
63537;DHT22;49686;51.880;5.632;2023-01-24T08:37:06;-0.20;99.90
63537;DHT22;49686;51.880;5.632;2023-01-24T08:39:33;-0.10;99.90
63537;DHT22;49686;51.880;5.632;2023-01-24T08:42:02;-0.20;99.90
63537;DHT22;49686;51.880;5.632;2023-01-24T08:44:29;-0.20;99.90
63537;DHT22;49686;51.880;5.632;2023-01-24T08:46:56;-0.20;99.90
63537;DHT22;49686;51.880;5.632;2023-01-24T08:49:22;-0.20;99.90
63537;DHT22;49686;51.880;5.632;2023-01-24T08:51:49;-0.10;99.90
63537;DHT22;49686;51.880;5.632;2023-01-24T08:54:16;-0.20;99.90
63537;DHT22;49686;51.880;5.632;2023-01-24T08:56:43;-0.20;99.90
63537;DHT22;49686;51.880;5.632;2023-01-24T08:59:11;-0.20;99.90
63537;DHT22;49686;51.880;5.632;2023-01-24T09:01:38;-0.10;99.90
63537;DHT22;49686;51.880;5.632;2023-01-24T09:04:05;-0.10;99.90
63537;DHT22;49686;51.880;5.632;2023-01-24T09:06:31;-0.10;99.90
63537;DHT22;49686;51.880;5.632;2023-01-24T09:08:58;-0.10;99.90
63537;DHT22;49686;51.880;5.632;2023-01-24T09:11:25;-0.10;99.90
63537;DHT22;49686;51.880;5.632;2023-01-24T09:13:52;0.00;99.90
63537;DHT22;49686;51.880;5.632;2023-01-24T09:16:20;-0.10;99.90
63537;DHT22;49686;51.880;5.632;2023-01-24T09:18:47;-0.10;99.90
63537;DHT22;49686;51.880;5.632;2023-01-24T09:21:14;-0.10;99.90
63537;DHT22;49686;51.880;5.632;2023-01-24T09:23:41;0.00;99.90
63537;DHT22;49686;51.880;5.632;2023-01-24T09:26:09;0.00;99.90
63537;DHT22;49686;51.880;5.632;2023-01-24T09:28:36;-0.10;99.90
63537;DHT22;49686;51.880;5.632;2023-01-24T09:31:03;-0.10;99.90
63537;DHT22;49686;51.880;5.632;2023-01-24T09:33:31;0.00;99.90
63537;DHT22;49686;51.880;5.632;2023-01-24T09:35:59;0.00;99.90
63537;DHT22;49686;51.880;5.632;2023-01-24T09:38:28;0.00;99.90
63537;DHT22;49686;51.880;5.632;2023-01-24T09:40:56;0.00;99.90
63537;DHT22;49686;51.880;5.632;2023-01-24T09:43:49;0.00;99.90
63537;DHT22;49686;51.880;5.632;2023-01-24T09:46:36;0.00;99.90
63537;DHT22;49686;51.880;5.632;2023-01-24T09:49:14;0.00;99.90
63537;DHT22;49686;51.880;5.632;2023-01-24T09:51:45;0.00;99.90
63537;DHT22;49686;51.880;5.632;2023-01-24T09:54:20;0.00;99.90
63537;DHT22;49686;51.880;5.632;2023-01-24T09:56:48;0.00;99.90
63537;DHT22;49686;51.880;5.632;2023-01-24T09:59:20;0.00;99.90
63537;DHT22;49686;51.880;5.632;2023-01-24T10:01:47;0.00;99.90
63537;DHT22;49686;51.880;5.632;2023-01-24T10:04:19;0.10;99.90
63537;DHT22;49686;51.880;5.632;2023-01-24T10:06:58;0.10;99.90
63537;DHT22;49686;51.880;5.632;2023-01-24T10:09:32;0.00;99.90
63537;DHT22;49686;51.880;5.632;2023-01-24T10:12:13;0.00;99.90
63537;DHT22;49686;51.880;5.632;2023-01-24T10:14:52;0.00;99.90
63537;DHT22;49686;51.880;5.632;2023-01-24T10:17:32;0.00;99.90
63537;DHT22;49686;51.880;5.632;2023-01-24T10:20:21;0.00;99.90
63537;DHT22;49686;51.880;5.632;2023-01-24T10:23:08;0.00;99.90
63537;DHT22;49686;51.880;5.632;2023-01-24T10:25:48;0.00;99.90
63537;DHT22;49686;51.880;5.632;2023-01-24T10:28:23;0.00;99.90
63537;DHT22;49686;51.880;5.632;2023-01-24T10:30:59;0.00;99.90
63537;DHT22;49686;51.880;5.632;2023-01-24T10:33:31;0.00;99.90
63537;DHT22;49686;51.880;5.632;2023-01-24T10:36:05;0.00;99.90
63537;DHT22;49686;51.880;5.632;2023-01-24T10:38:37;0.00;99.90
63537;DHT22;49686;51.880;5.632;2023-01-24T10:41:16;0.00;99.90
63537;DHT22;49686;51.880;5.632;2023-01-24T10:43:49;0.10;99.90
63537;DHT22;49686;51.880;5.632;2023-01-24T10:46:31;0.10;99.90
63537;DHT22;49686;51.880;5.632;2023-01-24T10:49:02;0.10;99.90
63537;DHT22;49686;51.880;5.632;2023-01-24T10:51:31;0.10;99.90
63537;DHT22;49686;51.880;5.632;2023-01-24T10:54:01;0.20;99.90
63537;DHT22;49686;51.880;5.632;2023-01-24T10:56:28;0.20;99.90
63537;DHT22;49686;51.880;5.632;2023-01-24T10:58:56;0.20;99.90
63537;DHT22;49686;51.880;5.632;2023-01-24T11:01:32;0.20;99.90
63537;DHT22;49686;51.880;5.632;2023-01-24T11:04:11;0.30;99.90
63537;DHT22;49686;51.880;5.632;2023-01-24T11:06:40;0.20;99.90
63537;DHT22;49686;51.880;5.632;2023-01-24T11:09:10;0.20;99.90
63537;DHT22;49686;51.880;5.632;2023-01-24T11:11:42;0.30;99.90
63537;DHT22;49686;51.880;5.632;2023-01-24T11:14:13;0.20;99.90
63537;DHT22;49686;51.880;5.632;2023-01-24T11:16:42;0.30;99.90
63537;DHT22;49686;51.880;5.632;2023-01-24T11:19:23;0.20;99.90
63537;DHT22;49686;51.880;5.632;2023-01-24T11:21:54;0.20;99.90
63537;DHT22;49686;51.880;5.632;2023-01-24T11:24:21;0.20;99.90
63537;DHT22;49686;51.880;5.632;2023-01-24T11:26:55;0.30;99.90
63537;DHT22;49686;51.880;5.632;2023-01-24T11:29:23;0.30;99.90
63537;DHT22;49686;51.880;5.632;2023-01-24T11:31:52;0.30;99.90
63537;DHT22;49686;51.880;5.632;2023-01-24T11:34:39;0.20;99.90
63537;DHT22;49686;51.880;5.632;2023-01-24T11:37:27;0.30;99.90
63537;DHT22;49686;51.880;5.632;2023-01-24T11:40:02;0.30;99.90
63537;DHT22;49686;51.880;5.632;2023-01-24T11:42:45;0.20;99.90
63537;DHT22;49686;51.880;5.632;2023-01-24T11:45:32;0.30;99.90
63537;DHT22;49686;51.880;5.632;2023-01-24T11:48:08;0.30;99.90
63537;DHT22;49686;51.880;5.632;2023-01-24T11:50:45;0.30;99.90
63537;DHT22;49686;51.880;5.632;2023-01-24T11:56:22;0.30;99.90
63537;DHT22;49686;51.880;5.632;2023-01-24T11:59:01;0.30;99.90
63537;DHT22;49686;51.880;5.632;2023-01-24T12:01:32;0.30;99.90
63537;DHT22;49686;51.880;5.632;2023-01-24T12:04:23;0.20;99.90
63537;DHT22;49686;51.880;5.632;2023-01-24T12:06:58;0.20;99.90
63537;DHT22;49686;51.880;5.632;2023-01-24T12:09:34;0.30;99.90
63537;DHT22;49686;51.880;5.632;2023-01-24T12:12:11;0.20;99.90
63537;DHT22;49686;51.880;5.632;2023-01-24T12:15:13;0.20;99.90
63537;DHT22;49686;51.880;5.632;2023-01-24T12:18:08;0.10;99.90
63537;DHT22;49686;51.880;5.632;2023-01-24T12:20:59;0.10;99.90
63537;DHT22;49686;51.880;5.632;2023-01-24T12:23:32;0.20;99.90
63537;DHT22;49686;51.880;5.632;2023-01-24T12:26:07;0.30;99.90
63537;DHT22;49686;51.880;5.632;2023-01-24T12:28:39;0.20;99.90
63537;DHT22;49686;51.880;5.632;2023-01-24T12:31:10;0.20;99.90
63537;DHT22;49686;51.880;5.632;2023-01-24T12:33:45;0.30;99.90
63537;DHT22;49686;51.880;5.632;2023-01-24T12:36:18;0.30;99.90
63537;DHT22;49686;51.880;5.632;2023-01-24T12:38:52;0.40;99.90
63537;DHT22;49686;51.880;5.632;2023-01-24T12:41:29;0.30;99.90
63537;DHT22;49686;51.880;5.632;2023-01-24T12:44:03;0.20;99.90
63537;DHT22;49686;51.880;5.632;2023-01-24T12:46:33;0.30;99.90
63537;DHT22;49686;51.880;5.632;2023-01-24T12:49:10;0.20;99.90
63537;DHT22;49686;51.880;5.632;2023-01-24T12:51:44;0.40;99.90
63537;DHT22;49686;51.880;5.632;2023-01-24T12:54:15;0.40;99.90
63537;DHT22;49686;51.880;5.632;2023-01-24T12:56:50;0.40;99.90
63537;DHT22;49686;51.880;5.632;2023-01-24T12:59:23;0.30;99.90
63537;DHT22;49686;51.880;5.632;2023-01-24T13:02:24;0.30;99.90
63537;DHT22;49686;51.880;5.632;2023-01-24T13:05:01;0.30;99.90
63537;DHT22;49686;51.880;5.632;2023-01-24T13:07:38;0.30;99.90
63537;DHT22;49686;51.880;5.632;2023-01-24T13:10:13;0.10;99.90
63537;DHT22;49686;51.880;5.632;2023-01-24T13:12:46;0.20;99.90
63537;DHT22;49686;51.880;5.632;2023-01-24T13:15:17;0.20;99.90
63537;DHT22;49686;51.880;5.632;2023-01-24T13:18:01;0.30;99.90
63537;DHT22;49686;51.880;5.632;2023-01-24T13:20:46;0.20;99.90
63537;DHT22;49686;51.880;5.632;2023-01-24T13:23:38;0.30;99.90
63537;DHT22;49686;51.880;5.632;2023-01-24T13:26:26;0.40;99.90
63537;DHT22;49686;51.880;5.632;2023-01-24T13:29:11;0.20;99.90
63537;DHT22;49686;51.880;5.632;2023-01-24T13:32:23;0.20;99.90
63537;DHT22;49686;51.880;5.632;2023-01-24T13:35:34;0.20;99.90
63537;DHT22;49686;51.880;5.632;2023-01-24T13:38:44;0.20;99.90
63537;DHT22;49686;51.880;5.632;2023-01-24T13:42:01;0.30;99.90
63537;DHT22;49686;51.880;5.632;2023-01-24T13:44:31;0.20;99.90
63537;DHT22;49686;51.880;5.632;2023-01-24T13:47:00;0.10;99.90
63537;DHT22;49686;51.880;5.632;2023-01-24T13:49:43;0.20;99.90
63537;DHT22;49686;51.880;5.632;2023-01-24T13:52:38;0.20;99.90
63537;DHT22;49686;51.880;5.632;2023-01-24T13:56:09;0.20;99.90
63537;DHT22;49686;51.880;5.632;2023-01-24T13:58:36;0.20;99.90
63537;DHT22;49686;51.880;5.632;2023-01-24T14:01:14;0.20;99.90
63537;DHT22;49686;51.880;5.632;2023-01-24T14:03:53;0.20;99.90
63537;DHT22;49686;51.880;5.632;2023-01-24T14:06:20;0.20;99.90
63537;DHT22;49686;51.880;5.632;2023-01-24T14:09:11;0.10;99.90
63537;DHT22;49686;51.880;5.632;2023-01-24T14:11:53;0.20;99.90
63537;DHT22;49686;51.880;5.632;2023-01-24T14:14:35;0.20;99.90
63537;DHT22;49686;51.880;5.632;2023-01-24T14:17:26;0.20;99.90
63537;DHT22;49686;51.880;5.632;2023-01-24T14:19:56;0.20;99.90
63537;DHT22;49686;51.880;5.632;2023-01-24T14:22:38;0.20;99.90
63537;DHT22;49686;51.880;5.632;2023-01-24T14:25:37;0.20;99.90
63537;DHT22;49686;51.880;5.632;2023-01-24T14:28:13;0.20;99.90
63537;DHT22;49686;51.880;5.632;2023-01-24T14:30:44;0.20;99.90
63537;DHT22;49686;51.880;5.632;2023-01-24T14:33:29;0.20;99.90
63537;DHT22;49686;51.880;5.632;2023-01-24T14:36:05;0.20;99.90
63537;DHT22;49686;51.880;5.632;2023-01-24T14:38:33;0.20;99.90
63537;DHT22;49686;51.880;5.632;2023-01-24T14:41:00;0.10;99.90
63537;DHT22;49686;51.880;5.632;2023-01-24T14:43:34;0.10;99.90
63537;DHT22;49686;51.880;5.632;2023-01-24T14:46:10;0.10;99.90
63537;DHT22;49686;51.880;5.632;2023-01-24T14:48:39;0.10;99.90
63537;DHT22;49686;51.880;5.632;2023-01-24T14:51:11;0.10;99.90
63537;DHT22;49686;51.880;5.632;2023-01-24T14:53:46;0.10;99.90
63537;DHT22;49686;51.880;5.632;2023-01-24T14:56:13;0.20;99.90
63537;DHT22;49686;51.880;5.632;2023-01-24T14:58:40;0.00;99.90
63537;DHT22;49686;51.880;5.632;2023-01-24T15:01:24;0.00;99.90
63537;DHT22;49686;51.880;5.632;2023-01-24T15:03:53;0.00;99.90
63537;DHT22;49686;51.880;5.632;2023-01-24T15:06:19;0.00;99.90
63537;DHT22;49686;51.880;5.632;2023-01-24T15:08:46;-0.10;99.90
63537;DHT22;49686;51.880;5.632;2023-01-24T15:11:19;-0.10;99.90
63537;DHT22;49686;51.880;5.632;2023-01-24T15:13:49;-0.10;99.90
63537;DHT22;49686;51.880;5.632;2023-01-24T15:16:18;-0.10;99.90
63537;DHT22;49686;51.880;5.632;2023-01-24T15:18:46;-0.10;99.90
63537;DHT22;49686;51.880;5.632;2023-01-24T15:21:22;0.00;99.90
63537;DHT22;49686;51.880;5.632;2023-01-24T15:23:51;-0.10;99.90
63537;DHT22;49686;51.880;5.632;2023-01-24T15:26:23;-0.20;99.90
63537;DHT22;49686;51.880;5.632;2023-01-24T15:28:52;-0.20;99.90
63537;DHT22;49686;51.880;5.632;2023-01-24T15:31:20;-0.20;99.90
63537;DHT22;49686;51.880;5.632;2023-01-24T15:33:54;-0.20;99.90
63537;DHT22;49686;51.880;5.632;2023-01-24T15:36:25;-0.20;99.90
63537;DHT22;49686;51.880;5.632;2023-01-24T15:38:54;-0.20;99.90
63537;DHT22;49686;51.880;5.632;2023-01-24T15:41:23;-0.20;99.90
63537;DHT22;49686;51.880;5.632;2023-01-24T15:44:00;-0.20;99.90
63537;DHT22;49686;51.880;5.632;2023-01-24T15:46:30;-0.20;99.90
63537;DHT22;49686;51.880;5.632;2023-01-24T15:49:00;-0.30;99.90
63537;DHT22;49686;51.880;5.632;2023-01-24T15:51:30;-0.30;99.90
63537;DHT22;49686;51.880;5.632;2023-01-24T15:53:57;-0.40;99.90
63537;DHT22;49686;51.880;5.632;2023-01-24T15:56:25;-0.40;99.90
63537;DHT22;49686;51.880;5.632;2023-01-24T15:58:53;-0.40;99.90
63537;DHT22;49686;51.880;5.632;2023-01-24T16:01:20;-0.40;99.90
63537;DHT22;49686;51.880;5.632;2023-01-24T16:03:52;-0.40;99.90
63537;DHT22;49686;51.880;5.632;2023-01-24T16:06:19;-0.40;99.90
63537;DHT22;49686;51.880;5.632;2023-01-24T16:08:47;-0.50;99.90
63537;DHT22;49686;51.880;5.632;2023-01-24T16:11:18;-0.50;99.90